This is the latest recevied weather packets stored in our database for station/object CE3UOB-10. If no packets are shown the sender has not sent any weather packets the latest 10 day(s).
| Time | Temp. | Humidity | Pressure | Rain* | Wind** | Luminosity | Snow |
|---|---|---|---|---|---|---|---|
| 1777520053 | 20° C | 49% | 990.1 hPa | - | - | - | - |
| 1777519995 | 22.22° C | 44% | 990.1 hPa | - | - | - | - |
| 1777519233 | 18.33° C | 55% | 990.1 hPa | - | - | - | - |
| 1777519223 | 18.33° C | 55% | 990.1 hPa | - | - | - | - |
| 1777509665 | 19.44° C | 55% | 990.5 hPa | - | - | - | - |
| 1777509661 | 19.44° C | 55% | 990.5 hPa | - | - | - | - |
| 1777507865 | 19.44° C | 56% | 990.5 hPa | - | - | - | - |
| 1777507861 | 19.44° C | 56% | 990.5 hPa | - | - | - | - |
| 1777506101 | 18.89° C | 59% | 990.5 hPa | - | - | - | - |
| 1777506100 | 18.89° C | 59% | 990.5 hPa | - | - | - | - |
| 1777504261 | 19.44° C | 58% | 990.5 hPa | - | - | - | - |
| 1777504254 | 19.44° C | 58% | 990.5 hPa | - | - | - | - |
| 1777502460 | 20° C | 58% | 990.4 hPa | - | - | - | - |
| 1777502454 | 20° C | 58% | 990.4 hPa | - | - | - | - |
| 1777500661 | 20° C | 57% | 990.4 hPa | - | - | - | - |
| 1777500654 | 20° C | 57% | 990.4 hPa | - | - | - | - |
| 1777498863 | 19.44° C | 57% | 990.3 hPa | - | - | - | - |
| 1777498853 | 19.44° C | 57% | 990.3 hPa | - | - | - | - |
| 1777497061 | 19.44° C | 56% | 990.1 hPa | - | - | - | - |
| 1777497056 | 19.44° C | 56% | 990.1 hPa | - | - | - | - |
| 1777495256 | 20° C | 55% | 990.2 hPa | - | - | - | - |
| 1777493456 | 19.44° C | 58% | 990.3 hPa | - | - | - | - |
| 1777491661 | 20° C | 55% | 990.5 hPa | - | - | - | - |
| 1777491656 | 20° C | 55% | 990.5 hPa | - | - | - | - |
| 1777489861 | 18.89° C | 56% | 990.7 hPa | - | - | - | - |
* Rain since midnight (hover to see other rain measurements)
** Current wind speed in m/s (hover to see current wind gust speed)